Flight Track Log - Related Links

Times and Time Zones

All times are in EDT time to prevent confusion due to time zone crossing. See the SKW6345 flight status page for this flight to view local times or setup timezone preferences in your user account.

Time Position Orientation Groundspeed Altitude Reporting Facility
EDT Latitude Longitude Course Direction KTS MPH feet Rate Location/Type
Wed 08:40:30 PM 33.9333 -118.4333 231° Southwest 146 168 1,900  Level Southern California TRACON
Wed 08:41:36 PM 33.9000 -118.4833 231° Southwest 187 215 3,600 1,596 Climbing Southern California TRACON
Wed 08:42:04 PM 33.8708 -118.4825 179° South 188 216 4,400 1,533 Climbing Los Angeles Center
Wed 08:43:06 PM 33.8178 -118.4722 171° South 189 217 5,900 1,403 Climbing Los Angeles Center
Wed 08:44:08 PM 33.7633 -118.4619 171° South 201 231 7,300 1,403 Climbing Los Angeles Center
Wed 08:45:10 PM 33.7106 -118.4411 162° South 205 236 8,800 919 Climbing Los Angeles Center
Wed 08:46:12 PM 33.6722 -118.3828 128° Southeast 220 253 9,200 192 Climbing Los Angeles Center
Wed 08:47:15 PM 33.6269 -118.3036 124° Southeast 238 274 9,200  Level Los Angeles Center
Wed 08:48:17 PM 33.5900 -118.2350 123° Southeast 244 281 9,200  Level Los Angeles Center
Wed 08:49:19 PM 33.5511 -118.1650 124° Southeast 249 287 9,200  Level Los Angeles Center
Wed 08:50:21 PM 33.5133 -118.0956 123° Southeast 249 287 9,200  Level Los Angeles Center
Wed 08:51:22 PM 33.4753 -118.0264 123° Southeast 249 287 9,200  Level Los Angeles Center
Wed 08:52:24 PM 33.4286 -117.9425 124° Southeast 251 289 9,200  Level Los Angeles Center
Wed 08:53:26 PM 33.3897 -117.8725 124° Southeast 253 291 9,200  Level Los Angeles Center
Wed 08:54:28 PM 33.3511 -117.8044 124° Southeast 249 287 9,200  Level Los Angeles Center
Wed 08:55:30 PM 33.3125 -117.7347 124° Southeast 251 289 9,200  Level Los Angeles Center
Wed 08:56:32 PM 33.2739 -117.6656 124° Southeast 249 287 9,200  Level Los Angeles Center
Wed 08:57:34 PM 33.2342 -117.5964 124° Southeast 251 289 9,200  Level Los Angeles Center
Wed 08:58:36 PM 33.1869 -117.5136 124° Southeast 251 289 9,200 -242 Level Los Angeles Center
Wed 08:59:38 PM 33.1486 -117.4442 123° Southeast 251 289 8,700 -532 Descending Los Angeles Center
Wed 09:00:40 PM 33.0881 -117.3969 147° Southeast 257 296 8,100 -800 Descending Los Angeles Center
Wed 09:01:38 PM 33.0167 -117.3667 160° South 245 282 7,100 -508 Descending Southern California TRACON
Wed 09:02:38 PM 32.9667 -117.3500 164° South 230 265 7,100  Level Southern California TRACON
Wed 09:03:38 PM 32.9000 -117.3333 168° South 239 275 7,100  Level Southern California TRACON
Wed 09:04:38 PM 32.8667 -117.2667 121° Southeast 246 283 7,100  Level Southern California TRACON
Wed 09:05:38 PM 32.8167 -117.2000 132° Southeast 252 290 7,100 -470 Level Southern California TRACON
Wed 09:06:33 PM 32.8000 -117.1167 103° East 256 295 6,200 -545 Descending Southern California TRACON
Wed 09:07:39 PM 32.7833 -117.0500 107° East 240 276 6,000 -350 Descending Southern California TRACON
Wed 09:08:33 PM 32.7500 -116.9667 115° Southeast 245 282 5,500 -550 Descending Southern California TRACON
Wed 09:09:39 PM 32.7000 -116.9500 164° South 230 265 4,900 -905 Descending Southern California TRACON
Wed 09:10:39 PM 32.6833 -117.0000 248° West 210 242 3,600 -1,100 Descending Southern California TRACON
Wed 09:11:39 PM 32.7000 -117.0667 287° West 155 178 2,700 -900 Descending Southern California TRACON
Wed 09:12:39 PM 32.7167 -117.1000 301° West 145 167 1,800 -950 Descending Southern California TRACON
Wed 09:13:39 PM 32.7167 -117.1500 270° West 131 151 800 -918 Descending Southern California TRACON
Wed 09:14:04 PM 32.7258 -117.1625 311° West 138 159 500 -414 Descending Los Angeles Center
Wed 09:15:06 PM 32.7333 -117.2014 283° West 134 154 200 -290 Descending Los Angeles Center

Login

Don't have an account? Register now (free) for customized features, flight alerts, and more!